Main page
METAR-TAF:

METAR-TAF

Airports :

Kiruna Airport

Kiruna, Sweden

latitude: 67-49N, longitude: 020-20E, elevation: 452 m

Current weather observation

The report was made 24 minutes ago, at 09:20 UTC
Wind 9 kt from the Southwest, varying between South/Southwest and West
Temperature 21°C
Humidity 60%
Pressure 1014 hPa
Visibility 10 km or more

METAR: ESNQ 240920Z AUTO 23009KT 200V260 9999 FEW076/// 21/13 Q1014

Time: 11:44 (09:44 UTC)

Forecast

The report was made 1 hour and 14 minutes ago, at 08:30 UTC
Forecast valid from 24 at 09 UTC to 24 at 17 UTC
Wind 9 kt from the Southwest
Visibility 10 km or more
no clouds below 1500 m and no cumulonimbus

TAF: ESNQ 240830Z 2409/2417 22009KT CAVOK

Weather observations and forecasts of more than 4000 airports (METAR and TAF reports).

The available stations are represented by yellow and red dots on the map.

Hover mouse over dot to see the name of the station.

Then click to see weather observations and forecasts.

To change the map : click on the green buttons with a black cross to zoom in, on the green button with a dash to zoom out, or on the green arrows for adjacent maps.


METAR-TAF: